sensor_id;sensor_type;location;lat;lon;timestamp;temperature;humidity
14061;DHT22;7105;43.616;1.434;2023-07-24T00:01:37;24.50;99.90
14061;DHT22;7105;43.616;1.434;2023-07-24T00:04:02;24.50;99.90
14061;DHT22;7105;43.616;1.434;2023-07-24T00:06:28;24.50;99.90
14061;DHT22;7105;43.616;1.434;2023-07-24T00:08:54;24.50;99.90
14061;DHT22;7105;43.616;1.434;2023-07-24T00:11:19;24.50;99.90
14061;DHT22;7105;43.616;1.434;2023-07-24T00:13:45;24.60;99.90
14061;DHT22;7105;43.616;1.434;2023-07-24T00:16:11;24.50;99.90
14061;DHT22;7105;43.616;1.434;2023-07-24T00:18:36;24.50;99.90
14061;DHT22;7105;43.616;1.434;2023-07-24T00:21:02;24.50;99.90
14061;DHT22;7105;43.616;1.434;2023-07-24T00:23:28;24.50;99.90
14061;DHT22;7105;43.616;1.434;2023-07-24T00:25:53;24.50;99.90
14061;DHT22;7105;43.616;1.434;2023-07-24T00:28:22;24.50;99.90
14061;DHT22;7105;43.616;1.434;2023-07-24T00:30:48;24.50;99.90
14061;DHT22;7105;43.616;1.434;2023-07-24T00:33:13;24.60;99.90
14061;DHT22;7105;43.616;1.434;2023-07-24T00:35:39;24.60;99.90
14061;DHT22;7105;43.616;1.434;2023-07-24T00:38:04;24.50;99.90
14061;DHT22;7105;43.616;1.434;2023-07-24T00:40:30;24.50;99.90
14061;DHT22;7105;43.616;1.434;2023-07-24T00:42:56;24.60;99.90
14061;DHT22;7105;43.616;1.434;2023-07-24T00:45:22;24.40;99.90
14061;DHT22;7105;43.616;1.434;2023-07-24T00:47:48;24.50;99.90
14061;DHT22;7105;43.616;1.434;2023-07-24T00:50:14;24.60;99.90
14061;DHT22;7105;43.616;1.434;2023-07-24T00:52:41;24.60;99.90
14061;DHT22;7105;43.616;1.434;2023-07-24T00:55:09;24.70;99.90
14061;DHT22;7105;43.616;1.434;2023-07-24T00:57:36;24.60;99.90
14061;DHT22;7105;43.616;1.434;2023-07-24T01:00:02;24.60;99.90
14061;DHT22;7105;43.616;1.434;2023-07-24T01:02:30;24.60;99.90
14061;DHT22;7105;43.616;1.434;2023-07-24T01:04:55;24.50;99.90
14061;DHT22;7105;43.616;1.434;2023-07-24T01:07:21;24.60;99.90
14061;DHT22;7105;43.616;1.434;2023-07-24T01:09:50;24.50;99.90
14061;DHT22;7105;43.616;1.434;2023-07-24T01:12:36;24.60;99.90
14061;DHT22;7105;43.616;1.434;2023-07-24T01:15:13;24.70;99.90
14061;DHT22;7105;43.616;1.434;2023-07-24T01:17:45;24.60;99.90
14061;DHT22;7105;43.616;1.434;2023-07-24T01:20:12;24.60;99.90
14061;DHT22;7105;43.616;1.434;2023-07-24T01:22:54;24.70;99.90
14061;DHT22;7105;43.616;1.434;2023-07-24T01:25:33;24.80;99.90
14061;DHT22;7105;43.616;1.434;2023-07-24T01:28:08;24.50;99.90
14061;DHT22;7105;43.616;1.434;2023-07-24T01:30:34;24.30;99.90
14061;DHT22;7105;43.616;1.434;2023-07-24T01:33:00;24.10;99.90
14061;DHT22;7105;43.616;1.434;2023-07-24T01:35:26;24.00;99.90
14061;DHT22;7105;43.616;1.434;2023-07-24T01:37:55;23.90;99.90
14061;DHT22;7105;43.616;1.434;2023-07-24T01:40:22;23.60;99.90
14061;DHT22;7105;43.616;1.434;2023-07-24T01:42:48;23.60;99.90
14061;DHT22;7105;43.616;1.434;2023-07-24T01:45:15;23.70;99.90
14061;DHT22;7105;43.616;1.434;2023-07-24T01:47:41;23.60;99.90
14061;DHT22;7105;43.616;1.434;2023-07-24T01:50:07;23.40;99.90
14061;DHT22;7105;43.616;1.434;2023-07-24T01:52:33;23.40;99.90
14061;DHT22;7105;43.616;1.434;2023-07-24T01:54:58;23.30;99.90
14061;DHT22;7105;43.616;1.434;2023-07-24T01:57:24;23.00;99.90
14061;DHT22;7105;43.616;1.434;2023-07-24T01:59:50;22.90;99.90
14061;DHT22;7105;43.616;1.434;2023-07-24T02:02:15;22.80;99.90
14061;DHT22;7105;43.616;1.434;2023-07-24T02:04:41;22.60;99.90
14061;DHT22;7105;43.616;1.434;2023-07-24T02:07:07;22.40;99.90
14061;DHT22;7105;43.616;1.434;2023-07-24T02:09:32;22.50;99.90
14061;DHT22;7105;43.616;1.434;2023-07-24T02:11:58;22.20;99.90
14061;DHT22;7105;43.616;1.434;2023-07-24T02:14:24;22.10;99.90
14061;DHT22;7105;43.616;1.434;2023-07-24T02:16:49;21.70;99.90
14061;DHT22;7105;43.616;1.434;2023-07-24T02:19:15;21.90;99.90
14061;DHT22;7105;43.616;1.434;2023-07-24T02:21:41;21.80;99.90
14061;DHT22;7105;43.616;1.434;2023-07-24T02:24:06;21.70;99.90
14061;DHT22;7105;43.616;1.434;2023-07-24T02:26:32;21.70;99.90
14061;DHT22;7105;43.616;1.434;2023-07-24T02:28:58;21.50;99.90
14061;DHT22;7105;43.616;1.434;2023-07-24T02:31:23;21.40;99.90
14061;DHT22;7105;43.616;1.434;2023-07-24T02:33:49;21.60;99.90
14061;DHT22;7105;43.616;1.434;2023-07-24T02:36:15;21.60;99.90
14061;DHT22;7105;43.616;1.434;2023-07-24T02:38:40;21.50;99.90
14061;DHT22;7105;43.616;1.434;2023-07-24T02:41:06;21.60;99.90
14061;DHT22;7105;43.616;1.434;2023-07-24T02:43:32;21.60;99.90
14061;DHT22;7105;43.616;1.434;2023-07-24T02:46:01;21.70;99.90
14061;DHT22;7105;43.616;1.434;2023-07-24T02:48:27;21.80;99.90
14061;DHT22;7105;43.616;1.434;2023-07-24T02:50:53;21.50;99.90
14061;DHT22;7105;43.616;1.434;2023-07-24T02:53:19;21.50;99.90
14061;DHT22;7105;43.616;1.434;2023-07-24T02:55:45;21.70;99.90
14061;DHT22;7105;43.616;1.434;2023-07-24T02:58:12;21.60;99.90
14061;DHT22;7105;43.616;1.434;2023-07-24T03:00:38;21.30;99.90
14061;DHT22;7105;43.616;1.434;2023-07-24T03:03:04;21.40;99.90
14061;DHT22;7105;43.616;1.434;2023-07-24T03:05:30;21.50;99.90
14061;DHT22;7105;43.616;1.434;2023-07-24T03:07:56;21.30;99.90
14061;DHT22;7105;43.616;1.434;2023-07-24T03:10:23;21.30;99.90
14061;DHT22;7105;43.616;1.434;2023-07-24T03:12:49;21.30;99.90
14061;DHT22;7105;43.616;1.434;2023-07-24T03:15:14;21.30;99.90
14061;DHT22;7105;43.616;1.434;2023-07-24T03:17:40;21.30;99.90
14061;DHT22;7105;43.616;1.434;2023-07-24T03:20:12;21.40;99.90
14061;DHT22;7105;43.616;1.434;2023-07-24T03:22:38;21.30;99.90
14061;DHT22;7105;43.616;1.434;2023-07-24T03:25:05;21.40;99.90
14061;DHT22;7105;43.616;1.434;2023-07-24T03:27:31;20.90;99.90
14061;DHT22;7105;43.616;1.434;2023-07-24T03:29:57;21.00;99.90
14061;DHT22;7105;43.616;1.434;2023-07-24T03:32:22;20.90;99.90
14061;DHT22;7105;43.616;1.434;2023-07-24T03:34:48;21.10;99.90
14061;DHT22;7105;43.616;1.434;2023-07-24T03:37:14;21.20;99.90
14061;DHT22;7105;43.616;1.434;2023-07-24T03:39:39;21.20;99.90
14061;DHT22;7105;43.616;1.434;2023-07-24T03:42:05;21.20;99.90
14061;DHT22;7105;43.616;1.434;2023-07-24T03:44:31;21.00;99.90
14061;DHT22;7105;43.616;1.434;2023-07-24T03:46:56;21.00;99.90
14061;DHT22;7105;43.616;1.434;2023-07-24T03:49:22;20.90;99.90
14061;DHT22;7105;43.616;1.434;2023-07-24T03:51:48;20.80;99.90
14061;DHT22;7105;43.616;1.434;2023-07-24T03:54:14;20.80;99.90
14061;DHT22;7105;43.616;1.434;2023-07-24T03:56:39;20.80;99.90
14061;DHT22;7105;43.616;1.434;2023-07-24T03:59:06;20.70;99.90
14061;DHT22;7105;43.616;1.434;2023-07-24T04:01:31;20.70;99.90
14061;DHT22;7105;43.616;1.434;2023-07-24T04:03:58;20.90;99.90
14061;DHT22;7105;43.616;1.434;2023-07-24T04:06:24;20.80;99.90
14061;DHT22;7105;43.616;1.434;2023-07-24T04:08:50;20.80;99.90
14061;DHT22;7105;43.616;1.434;2023-07-24T04:11:15;20.90;99.90
14061;DHT22;7105;43.616;1.434;2023-07-24T04:13:41;20.90;99.90
14061;DHT22;7105;43.616;1.434;2023-07-24T04:16:06;20.90;99.90
14061;DHT22;7105;43.616;1.434;2023-07-24T04:18:32;21.00;99.90
14061;DHT22;7105;43.616;1.434;2023-07-24T04:20:58;21.00;99.90
14061;DHT22;7105;43.616;1.434;2023-07-24T04:23:23;20.90;99.90
14061;DHT22;7105;43.616;1.434;2023-07-24T04:25:50;20.90;99.90
14061;DHT22;7105;43.616;1.434;2023-07-24T04:28:15;20.90;99.90
14061;DHT22;7105;43.616;1.434;2023-07-24T04:30:41;20.80;99.90
14061;DHT22;7105;43.616;1.434;2023-07-24T04:33:07;20.80;99.90
14061;DHT22;7105;43.616;1.434;2023-07-24T04:35:32;20.90;99.90
14061;DHT22;7105;43.616;1.434;2023-07-24T04:37:59;20.90;99.90
14061;DHT22;7105;43.616;1.434;2023-07-24T04:40:24;20.90;99.90
14061;DHT22;7105;43.616;1.434;2023-07-24T04:42:50;21.00;99.90
14061;DHT22;7105;43.616;1.434;2023-07-24T04:45:16;20.90;99.90
14061;DHT22;7105;43.616;1.434;2023-07-24T04:47:41;20.80;99.90
14061;DHT22;7105;43.616;1.434;2023-07-24T04:50:07;20.80;99.90
14061;DHT22;7105;43.616;1.434;2023-07-24T04:52:33;20.90;99.90
14061;DHT22;7105;43.616;1.434;2023-07-24T04:54:59;20.90;99.90
14061;DHT22;7105;43.616;1.434;2023-07-24T04:57:24;20.80;99.90
14061;DHT22;7105;43.616;1.434;2023-07-24T04:59:50;20.90;99.90
14061;DHT22;7105;43.616;1.434;2023-07-24T05:02:15;21.00;99.90
14061;DHT22;7105;43.616;1.434;2023-07-24T05:04:41;21.00;99.90
14061;DHT22;7105;43.616;1.434;2023-07-24T05:07:07;20.90;99.90
14061;DHT22;7105;43.616;1.434;2023-07-24T05:09:32;21.00;99.90
14061;DHT22;7105;43.616;1.434;2023-07-24T05:11:58;20.90;99.90
14061;DHT22;7105;43.616;1.434;2023-07-24T05:14:24;20.80;99.90
14061;DHT22;7105;43.616;1.434;2023-07-24T05:16:49;20.80;99.90
14061;DHT22;7105;43.616;1.434;2023-07-24T05:19:15;20.90;99.90
14061;DHT22;7105;43.616;1.434;2023-07-24T05:21:41;20.90;99.90
14061;DHT22;7105;43.616;1.434;2023-07-24T05:24:06;21.10;99.90
14061;DHT22;7105;43.616;1.434;2023-07-24T05:26:32;20.90;99.90
14061;DHT22;7105;43.616;1.434;2023-07-24T05:28:58;21.10;99.90
14061;DHT22;7105;43.616;1.434;2023-07-24T05:31:23;21.20;99.90
14061;DHT22;7105;43.616;1.434;2023-07-24T05:33:49;20.90;99.90
14061;DHT22;7105;43.616;1.434;2023-07-24T05:36:15;20.90;99.90
14061;DHT22;7105;43.616;1.434;2023-07-24T05:38:40;21.00;99.90
14061;DHT22;7105;43.616;1.434;2023-07-24T05:41:06;21.10;99.90
14061;DHT22;7105;43.616;1.434;2023-07-24T05:43:32;20.90;99.90
14061;DHT22;7105;43.616;1.434;2023-07-24T05:45:58;21.10;99.90
14061;DHT22;7105;43.616;1.434;2023-07-24T05:48:24;21.30;99.90
14061;DHT22;7105;43.616;1.434;2023-07-24T05:50:50;21.30;99.90
14061;DHT22;7105;43.616;1.434;2023-07-24T05:53:16;21.00;99.90
14061;DHT22;7105;43.616;1.434;2023-07-24T05:55:42;21.00;99.90
14061;DHT22;7105;43.616;1.434;2023-07-24T05:58:09;21.10;99.90
14061;DHT22;7105;43.616;1.434;2023-07-24T06:00:35;21.10;99.90
14061;DHT22;7105;43.616;1.434;2023-07-24T06:03:02;21.40;99.90
14061;DHT22;7105;43.616;1.434;2023-07-24T06:05:28;21.40;99.90
14061;DHT22;7105;43.616;1.434;2023-07-24T06:07:54;21.50;99.90
14061;DHT22;7105;43.616;1.434;2023-07-24T06:10:20;21.70;99.90
14061;DHT22;7105;43.616;1.434;2023-07-24T06:12:46;21.50;99.90
14061;DHT22;7105;43.616;1.434;2023-07-24T06:15:12;21.80;99.90
14061;DHT22;7105;43.616;1.434;2023-07-24T06:17:38;22.00;99.90
14061;DHT22;7105;43.616;1.434;2023-07-24T06:20:05;22.20;99.90
14061;DHT22;7105;43.616;1.434;2023-07-24T06:22:31;22.00;99.90
14061;DHT22;7105;43.616;1.434;2023-07-24T06:24:56;21.90;99.90
14061;DHT22;7105;43.616;1.434;2023-07-24T06:27:22;22.00;99.90
14061;DHT22;7105;43.616;1.434;2023-07-24T06:29:48;21.90;99.90
14061;DHT22;7105;43.616;1.434;2023-07-24T06:32:13;21.80;99.90
14061;DHT22;7105;43.616;1.434;2023-07-24T06:34:39;21.80;99.90
14061;DHT22;7105;43.616;1.434;2023-07-24T06:37:04;21.70;99.90
14061;DHT22;7105;43.616;1.434;2023-07-24T06:39:30;21.70;99.90
14061;DHT22;7105;43.616;1.434;2023-07-24T06:41:56;21.90;99.90
14061;DHT22;7105;43.616;1.434;2023-07-24T06:44:22;21.90;99.90
14061;DHT22;7105;43.616;1.434;2023-07-24T06:46:47;22.20;99.90
14061;DHT22;7105;43.616;1.434;2023-07-24T06:49:13;22.20;99.90
14061;DHT22;7105;43.616;1.434;2023-07-24T06:51:39;22.00;99.90
14061;DHT22;7105;43.616;1.434;2023-07-24T06:54:05;21.90;99.90
14061;DHT22;7105;43.616;1.434;2023-07-24T06:56:31;22.00;99.90
14061;DHT22;7105;43.616;1.434;2023-07-24T06:58:57;22.20;99.90
14061;DHT22;7105;43.616;1.434;2023-07-24T07:01:23;21.90;99.90
14061;DHT22;7105;43.616;1.434;2023-07-24T07:03:48;22.10;99.90
14061;DHT22;7105;43.616;1.434;2023-07-24T07:06:14;21.90;99.90
14061;DHT22;7105;43.616;1.434;2023-07-24T07:08:40;22.00;99.90
14061;DHT22;7105;43.616;1.434;2023-07-24T07:11:05;22.30;99.90
14061;DHT22;7105;43.616;1.434;2023-07-24T07:13:31;22.40;99.90
14061;DHT22;7105;43.616;1.434;2023-07-24T07:15:57;22.70;99.90
14061;DHT22;7105;43.616;1.434;2023-07-24T07:18:23;22.50;99.90
14061;DHT22;7105;43.616;1.434;2023-07-24T07:20:50;22.30;99.90
14061;DHT22;7105;43.616;1.434;2023-07-24T07:23:16;22.30;99.90
14061;DHT22;7105;43.616;1.434;2023-07-24T07:25:42;22.00;99.90
14061;DHT22;7105;43.616;1.434;2023-07-24T07:28:15;22.20;99.90
14061;DHT22;7105;43.616;1.434;2023-07-24T07:30:41;22.50;99.90
14061;DHT22;7105;43.616;1.434;2023-07-24T07:33:07;22.50;99.90
14061;DHT22;7105;43.616;1.434;2023-07-24T07:35:33;22.90;99.90
14061;DHT22;7105;43.616;1.434;2023-07-24T07:37:59;22.70;99.90
14061;DHT22;7105;43.616;1.434;2023-07-24T07:40:26;22.30;99.90
14061;DHT22;7105;43.616;1.434;2023-07-24T07:42:53;22.40;99.90
14061;DHT22;7105;43.616;1.434;2023-07-24T07:45:19;22.50;99.90
14061;DHT22;7105;43.616;1.434;2023-07-24T07:47:45;22.40;99.90
14061;DHT22;7105;43.616;1.434;2023-07-24T07:50:10;22.50;99.90
14061;DHT22;7105;43.616;1.434;2023-07-24T07:52:36;23.00;99.90
14061;DHT22;7105;43.616;1.434;2023-07-24T07:55:02;23.20;99.90
14061;DHT22;7105;43.616;1.434;2023-07-24T07:57:28;22.90;99.90
14061;DHT22;7105;43.616;1.434;2023-07-24T07:59:54;22.90;99.90
14061;DHT22;7105;43.616;1.434;2023-07-24T08:02:20;23.00;99.90
14061;DHT22;7105;43.616;1.434;2023-07-24T08:04:45;23.10;99.90
14061;DHT22;7105;43.616;1.434;2023-07-24T08:07:11;23.20;99.90
14061;DHT22;7105;43.616;1.434;2023-07-24T08:09:36;23.00;99.90
14061;DHT22;7105;43.616;1.434;2023-07-24T08:12:04;23.20;99.90
14061;DHT22;7105;43.616;1.434;2023-07-24T08:14:30;23.20;99.90
14061;DHT22;7105;43.616;1.434;2023-07-24T08:16:56;23.10;99.90
14061;DHT22;7105;43.616;1.434;2023-07-24T08:19:21;22.90;99.90
14061;DHT22;7105;43.616;1.434;2023-07-24T08:21:47;22.80;99.90
14061;DHT22;7105;43.616;1.434;2023-07-24T08:24:13;22.70;99.90
14061;DHT22;7105;43.616;1.434;2023-07-24T08:26:39;22.90;99.90
14061;DHT22;7105;43.616;1.434;2023-07-24T08:29:05;23.00;99.90
14061;DHT22;7105;43.616;1.434;2023-07-24T08:31:31;23.40;99.90
14061;DHT22;7105;43.616;1.434;2023-07-24T08:33:57;23.90;99.90
14061;DHT22;7105;43.616;1.434;2023-07-24T08:36:22;24.10;99.90
14061;DHT22;7105;43.616;1.434;2023-07-24T08:38:48;23.80;99.90
14061;DHT22;7105;43.616;1.434;2023-07-24T08:41:14;23.40;99.90
14061;DHT22;7105;43.616;1.434;2023-07-24T08:43:43;23.80;99.90
14061;DHT22;7105;43.616;1.434;2023-07-24T08:46:10;23.60;99.90
14061;DHT22;7105;43.616;1.434;2023-07-24T08:48:40;23.60;99.90
14061;DHT22;7105;43.616;1.434;2023-07-24T08:53:34;23.40;99.90
14061;DHT22;7105;43.616;1.434;2023-07-24T08:56:07;23.60;99.90
14061;DHT22;7105;43.616;1.434;2023-07-24T08:58:34;23.00;99.90
14061;DHT22;7105;43.616;1.434;2023-07-24T09:01:01;23.00;99.90
14061;DHT22;7105;43.616;1.434;2023-07-24T09:03:28;22.90;99.90
14061;DHT22;7105;43.616;1.434;2023-07-24T09:05:54;23.40;99.90
14061;DHT22;7105;43.616;1.434;2023-07-24T09:08:36;23.60;99.90
14061;DHT22;7105;43.616;1.434;2023-07-24T09:11:04;24.10;99.90
14061;DHT22;7105;43.616;1.434;2023-07-24T09:13:30;24.20;99.90
14061;DHT22;7105;43.616;1.434;2023-07-24T09:15:57;24.10;99.90
14061;DHT22;7105;43.616;1.434;2023-07-24T09:18:24;24.20;99.90
14061;DHT22;7105;43.616;1.434;2023-07-24T09:20:50;23.90;99.90
14061;DHT22;7105;43.616;1.434;2023-07-24T09:23:17;23.80;99.90
14061;DHT22;7105;43.616;1.434;2023-07-24T09:25:50;24.00;99.90
14061;DHT22;7105;43.616;1.434;2023-07-24T09:28:17;24.00;99.90
14061;DHT22;7105;43.616;1.434;2023-07-24T09:30:52;23.90;99.90
14061;DHT22;7105;43.616;1.434;2023-07-24T09:33:18;23.70;99.90
14061;DHT22;7105;43.616;1.434;2023-07-24T09:35:44;24.00;99.90
14061;DHT22;7105;43.616;1.434;2023-07-24T09:38:11;24.00;99.90
14061;DHT22;7105;43.616;1.434;2023-07-24T09:40:41;23.90;99.90
14061;DHT22;7105;43.616;1.434;2023-07-24T09:43:24;24.10;99.90
14061;DHT22;7105;43.616;1.434;2023-07-24T09:45:51;24.10;99.90
14061;DHT22;7105;43.616;1.434;2023-07-24T09:48:18;24.40;99.90
14061;DHT22;7105;43.616;1.434;2023-07-24T09:50:48;24.40;99.90
14061;DHT22;7105;43.616;1.434;2023-07-24T09:56:07;24.70;99.90
14061;DHT22;7105;43.616;1.434;2023-07-24T09:58:35;25.00;99.90
14061;DHT22;7105;43.616;1.434;2023-07-24T10:01:03;25.30;99.90
14061;DHT22;7105;43.616;1.434;2023-07-24T10:03:30;25.20;99.90
14061;DHT22;7105;43.616;1.434;2023-07-24T10:05:56;25.00;99.90
14061;DHT22;7105;43.616;1.434;2023-07-24T10:08:22;24.40;99.90
14061;DHT22;7105;43.616;1.434;2023-07-24T10:10:49;24.10;99.90
14061;DHT22;7105;43.616;1.434;2023-07-24T10:13:17;24.40;99.90
14061;DHT22;7105;43.616;1.434;2023-07-24T10:15:46;24.20;99.90
14061;DHT22;7105;43.616;1.434;2023-07-24T10:18:12;24.10;99.90
14061;DHT22;7105;43.616;1.434;2023-07-24T10:20:40;24.40;99.90
14061;DHT22;7105;43.616;1.434;2023-07-24T10:23:11;24.30;99.90
14061;DHT22;7105;43.616;1.434;2023-07-24T10:25:39;24.60;99.90
14061;DHT22;7105;43.616;1.434;2023-07-24T10:28:11;25.00;99.90
14061;DHT22;7105;43.616;1.434;2023-07-24T10:30:40;25.00;99.90
14061;DHT22;7105;43.616;1.434;2023-07-24T10:35:42;25.20;99.90
14061;DHT22;7105;43.616;1.434;2023-07-24T10:38:09;25.10;99.90
14061;DHT22;7105;43.616;1.434;2023-07-24T10:40:34;25.20;99.90
14061;DHT22;7105;43.616;1.434;2023-07-24T10:43:04;24.90;99.90
14061;DHT22;7105;43.616;1.434;2023-07-24T10:45:48;24.90;99.90
14061;DHT22;7105;43.616;1.434;2023-07-24T10:48:15;25.00;99.90
14061;DHT22;7105;43.616;1.434;2023-07-24T10:50:43;24.80;99.90
14061;DHT22;7105;43.616;1.434;2023-07-24T10:53:10;24.70;99.90
14061;DHT22;7105;43.616;1.434;2023-07-24T10:55:36;25.00;99.90
14061;DHT22;7105;43.616;1.434;2023-07-24T10:58:02;25.40;99.90
14061;DHT22;7105;43.616;1.434;2023-07-24T11:00:28;25.90;99.90
14061;DHT22;7105;43.616;1.434;2023-07-24T11:02:54;25.80;99.90
14061;DHT22;7105;43.616;1.434;2023-07-24T11:05:23;25.90;99.90
14061;DHT22;7105;43.616;1.434;2023-07-24T11:07:49;26.00;99.90
14061;DHT22;7105;43.616;1.434;2023-07-24T11:10:19;25.90;99.90
14061;DHT22;7105;43.616;1.434;2023-07-24T11:12:46;25.90;99.90
14061;DHT22;7105;43.616;1.434;2023-07-24T11:15:12;25.80;99.90
14061;DHT22;7105;43.616;1.434;2023-07-24T11:17:39;26.10;99.90
14061;DHT22;7105;43.616;1.434;2023-07-24T11:20:13;26.30;99.90
14061;DHT22;7105;43.616;1.434;2023-07-24T11:22:40;26.50;99.90
14061;DHT22;7105;43.616;1.434;2023-07-24T11:25:07;26.10;99.90
14061;DHT22;7105;43.616;1.434;2023-07-24T11:27:41;26.60;99.90
14061;DHT22;7105;43.616;1.434;2023-07-24T11:30:08;26.60;99.90
14061;DHT22;7105;43.616;1.434;2023-07-24T11:32:33;26.40;99.90
14061;DHT22;7105;43.616;1.434;2023-07-24T11:35:00;26.80;99.90
14061;DHT22;7105;43.616;1.434;2023-07-24T11:37:26;26.40;99.90
14061;DHT22;7105;43.616;1.434;2023-07-24T11:39:59;26.10;99.90
14061;DHT22;7105;43.616;1.434;2023-07-24T11:42:28;26.40;99.90
14061;DHT22;7105;43.616;1.434;2023-07-24T11:44:54;25.70;99.90
14061;DHT22;7105;43.616;1.434;2023-07-24T11:47:20;25.40;99.90
14061;DHT22;7105;43.616;1.434;2023-07-24T11:49:57;25.40;99.90
14061;DHT22;7105;43.616;1.434;2023-07-24T11:52:22;25.80;99.90
14061;DHT22;7105;43.616;1.434;2023-07-24T11:54:56;26.10;99.90
14061;DHT22;7105;43.616;1.434;2023-07-24T11:57:28;26.50;99.90
14061;DHT22;7105;43.616;1.434;2023-07-24T11:59:54;26.40;99.90
14061;DHT22;7105;43.616;1.434;2023-07-24T12:02:26;26.50;99.90
14061;DHT22;7105;43.616;1.434;2023-07-24T12:04:59;26.30;99.90
14061;DHT22;7105;43.616;1.434;2023-07-24T12:07:35;26.20;99.90
14061;DHT22;7105;43.616;1.434;2023-07-24T12:10:05;26.10;99.90
14061;DHT22;7105;43.616;1.434;2023-07-24T12:12:39;26.50;99.90
14061;DHT22;7105;43.616;1.434;2023-07-24T12:15:05;26.50;99.90
14061;DHT22;7105;43.616;1.434;2023-07-24T12:17:31;26.50;99.90
14061;DHT22;7105;43.616;1.434;2023-07-24T12:19:56;25.90;99.90
14061;DHT22;7105;43.616;1.434;2023-07-24T12:22:22;26.00;99.90
14061;DHT22;7105;43.616;1.434;2023-07-24T12:24:48;26.20;99.90
14061;DHT22;7105;43.616;1.434;2023-07-24T12:27:13;26.80;99.90
14061;DHT22;7105;43.616;1.434;2023-07-24T12:29:39;26.50;99.90
14061;DHT22;7105;43.616;1.434;2023-07-24T12:32:05;26.30;99.90
14061;DHT22;7105;43.616;1.434;2023-07-24T12:34:31;26.90;99.90
14061;DHT22;7105;43.616;1.434;2023-07-24T12:36:56;27.00;99.90
14061;DHT22;7105;43.616;1.434;2023-07-24T12:39:22;27.00;99.90
14061;DHT22;7105;43.616;1.434;2023-07-24T12:41:48;27.50;99.90
14061;DHT22;7105;43.616;1.434;2023-07-24T12:44:13;27.60;99.90
14061;DHT22;7105;43.616;1.434;2023-07-24T12:46:39;27.00;99.90
14061;DHT22;7105;43.616;1.434;2023-07-24T12:49:05;27.00;99.90
14061;DHT22;7105;43.616;1.434;2023-07-24T12:51:30;27.20;99.90
14061;DHT22;7105;43.616;1.434;2023-07-24T12:53:56;27.20;99.90
14061;DHT22;7105;43.616;1.434;2023-07-24T12:56:22;27.20;99.90
14061;DHT22;7105;43.616;1.434;2023-07-24T12:58:47;27.00;99.90
14061;DHT22;7105;43.616;1.434;2023-07-24T13:01:13;27.00;99.90
14061;DHT22;7105;43.616;1.434;2023-07-24T13:03:38;27.70;99.90
14061;DHT22;7105;43.616;1.434;2023-07-24T13:06:04;27.40;99.90
14061;DHT22;7105;43.616;1.434;2023-07-24T13:08:30;27.00;99.90
14061;DHT22;7105;43.616;1.434;2023-07-24T13:10:55;26.70;99.90
14061;DHT22;7105;43.616;1.434;2023-07-24T13:13:22;26.60;99.90
14061;DHT22;7105;43.616;1.434;2023-07-24T13:15:47;26.40;99.90
14061;DHT22;7105;43.616;1.434;2023-07-24T13:18:16;26.00;99.90
14061;DHT22;7105;43.616;1.434;2023-07-24T13:20:42;25.30;99.90
14061;DHT22;7105;43.616;1.434;2023-07-24T13:23:07;24.40;99.90
14061;DHT22;7105;43.616;1.434;2023-07-24T13:25:33;24.10;99.90
14061;DHT22;7105;43.616;1.434;2023-07-24T13:27:59;23.70;99.90
14061;DHT22;7105;43.616;1.434;2023-07-24T13:30:24;23.60;99.90
14061;DHT22;7105;43.616;1.434;2023-07-24T13:32:50;23.60;99.90
14061;DHT22;7105;43.616;1.434;2023-07-24T13:35:16;23.20;99.90
14061;DHT22;7105;43.616;1.434;2023-07-24T13:37:42;23.30;99.90
14061;DHT22;7105;43.616;1.434;2023-07-24T13:40:08;23.40;99.90
14061;DHT22;7105;43.616;1.434;2023-07-24T13:42:34;23.40;99.90
14061;DHT22;7105;43.616;1.434;2023-07-24T13:44:59;23.30;99.90
14061;DHT22;7105;43.616;1.434;2023-07-24T13:47:25;23.20;99.90
14061;DHT22;7105;43.616;1.434;2023-07-24T13:49:51;22.90;99.90
14061;DHT22;7105;43.616;1.434;2023-07-24T13:52:16;22.90;99.90
14061;DHT22;7105;43.616;1.434;2023-07-24T13:54:42;23.00;99.90
14061;DHT22;7105;43.616;1.434;2023-07-24T13:57:08;23.40;99.90
14061;DHT22;7105;43.616;1.434;2023-07-24T13:59:35;23.30;99.90
14061;DHT22;7105;43.616;1.434;2023-07-24T14:02:00;23.30;99.90
14061;DHT22;7105;43.616;1.434;2023-07-24T14:04:26;23.40;99.90
14061;DHT22;7105;43.616;1.434;2023-07-24T14:06:52;23.60;99.90
14061;DHT22;7105;43.616;1.434;2023-07-24T14:09:17;23.80;99.90
14061;DHT22;7105;43.616;1.434;2023-07-24T14:11:43;23.90;99.90
14061;DHT22;7105;43.616;1.434;2023-07-24T14:14:09;23.90;99.90
14061;DHT22;7105;43.616;1.434;2023-07-24T14:16:34;24.10;99.90
14061;DHT22;7105;43.616;1.434;2023-07-24T14:19:00;24.30;99.90
14061;DHT22;7105;43.616;1.434;2023-07-24T14:21:26;24.50;99.90
14061;DHT22;7105;43.616;1.434;2023-07-24T14:23:51;24.70;99.90
14061;DHT22;7105;43.616;1.434;2023-07-24T14:26:17;24.70;99.90
14061;DHT22;7105;43.616;1.434;2023-07-24T14:28:42;24.90;99.90
14061;DHT22;7105;43.616;1.434;2023-07-24T14:31:08;24.60;99.90
14061;DHT22;7105;43.616;1.434;2023-07-24T14:33:34;24.50;99.90
14061;DHT22;7105;43.616;1.434;2023-07-24T14:35:59;24.60;99.90
14061;DHT22;7105;43.616;1.434;2023-07-24T14:38:25;24.80;99.90
14061;DHT22;7105;43.616;1.434;2023-07-24T14:40:51;24.70;99.90
14061;DHT22;7105;43.616;1.434;2023-07-24T14:43:16;24.50;99.90
14061;DHT22;7105;43.616;1.434;2023-07-24T14:45:42;24.50;99.90
14061;DHT22;7105;43.616;1.434;2023-07-24T14:48:08;24.70;99.90
14061;DHT22;7105;43.616;1.434;2023-07-24T14:50:40;24.80;99.90
14061;DHT22;7105;43.616;1.434;2023-07-24T14:53:05;24.60;99.90
14061;DHT22;7105;43.616;1.434;2023-07-24T14:55:31;24.40;99.90
14061;DHT22;7105;43.616;1.434;2023-07-24T14:57:57;24.40;99.90
14061;DHT22;7105;43.616;1.434;2023-07-24T15:00:22;24.70;99.90
14061;DHT22;7105;43.616;1.434;2023-07-24T15:02:48;24.20;99.90
14061;DHT22;7105;43.616;1.434;2023-07-24T15:05:14;24.30;99.90
14061;DHT22;7105;43.616;1.434;2023-07-24T15:07:39;24.40;99.90
14061;DHT22;7105;43.616;1.434;2023-07-24T15:10:05;24.40;99.90
14061;DHT22;7105;43.616;1.434;2023-07-24T15:12:31;24.40;99.90
14061;DHT22;7105;43.616;1.434;2023-07-24T15:14:57;24.50;99.90
14061;DHT22;7105;43.616;1.434;2023-07-24T15:17:22;24.80;99.90
14061;DHT22;7105;43.616;1.434;2023-07-24T15:19:48;24.90;99.90
14061;DHT22;7105;43.616;1.434;2023-07-24T15:22:14;24.70;99.90
14061;DHT22;7105;43.616;1.434;2023-07-24T15:24:40;24.90;99.90
14061;DHT22;7105;43.616;1.434;2023-07-24T15:27:07;25.00;99.90
14061;DHT22;7105;43.616;1.434;2023-07-24T15:29:35;24.40;99.90
14061;DHT22;7105;43.616;1.434;2023-07-24T15:32:01;24.30;99.90
14061;DHT22;7105;43.616;1.434;2023-07-24T15:34:28;24.40;99.90
14061;DHT22;7105;43.616;1.434;2023-07-24T15:36:54;24.40;99.90
14061;DHT22;7105;43.616;1.434;2023-07-24T15:39:19;24.30;99.90
14061;DHT22;7105;43.616;1.434;2023-07-24T15:41:45;24.20;99.90
14061;DHT22;7105;43.616;1.434;2023-07-24T15:44:10;24.20;99.90
14061;DHT22;7105;43.616;1.434;2023-07-24T15:46:36;24.10;99.90
14061;DHT22;7105;43.616;1.434;2023-07-24T15:49:02;23.90;99.90